createdAt,value
2024-03-04T00:00:32.798Z,0.079
2024-03-04T00:02:32.852Z,0.079
2024-03-04T00:04:33.052Z,0.078
2024-03-04T00:06:32.786Z,0.078
2024-03-04T00:08:32.770Z,0.077
2024-03-04T00:10:33.003Z,0.073
2024-03-04T00:12:32.815Z,0.070
2024-03-04T00:14:32.759Z,0.069
2024-03-04T00:16:32.934Z,0.070
2024-03-04T00:18:32.759Z,0.071
2024-03-04T00:20:37.839Z,0.070
2024-03-04T00:22:32.832Z,0.067
2024-03-04T00:24:32.835Z,0.066
2024-03-04T00:26:32.813Z,0.067
2024-03-04T00:28:32.933Z,0.067
2024-03-04T00:30:32.824Z,0.066
2024-03-04T00:32:32.781Z,0.068
2024-03-04T00:34:33.027Z,0.068
2024-03-04T00:36:32.809Z,0.069
2024-03-04T00:38:32.958Z,0.069
2024-03-04T00:40:32.837Z,0.069
2024-03-04T00:43:32.830Z,0.068
2024-03-04T00:45:32.898Z,0.067
2024-03-04T00:47:32.788Z,0.064
2024-03-04T00:48:35.525Z,0.065
2024-03-04T00:51:32.805Z,0.066
2024-03-04T00:53:32.874Z,0.065
2024-03-04T00:55:32.772Z,0.064
2024-03-04T00:57:32.836Z,0.063
2024-03-04T00:59:33.112Z,0.063
2024-03-04T01:01:32.919Z,0.063
2024-03-04T01:03:33.567Z,0.064
2024-03-04T01:05:32.856Z,0.065
2024-03-04T01:07:33.047Z,0.066
2024-03-04T01:09:33.775Z,0.065
2024-03-04T01:11:32.922Z,0.068
2024-03-04T01:13:33.032Z,0.068
2024-03-04T01:15:32.839Z,0.066
2024-03-04T01:17:32.840Z,0.065
2024-03-04T01:19:35.627Z,0.065
2024-03-04T01:21:32.858Z,0.063
2024-03-04T01:23:32.848Z,0.065
2024-03-04T01:25:32.913Z,0.066
2024-03-04T01:27:32.874Z,0.068
2024-03-04T01:29:32.964Z,0.069
2024-03-04T01:31:32.844Z,0.070
2024-03-04T01:33:32.787Z,0.070
2024-03-04T01:35:32.805Z,0.069
2024-03-04T01:37:33.219Z,0.070
2024-03-04T01:39:32.856Z,0.069
2024-03-04T01:41:32.840Z,0.070
2024-03-04T01:43:32.935Z,0.070
2024-03-04T01:45:32.776Z,0.071
2024-03-04T01:47:32.832Z,0.073
2024-03-04T01:49:32.895Z,0.075
2024-03-04T01:51:32.858Z,0.077
2024-03-04T01:53:32.966Z,0.078
2024-03-04T01:55:32.824Z,0.080
2024-03-04T01:57:32.833Z,0.078
2024-03-04T01:59:32.796Z,0.079
2024-03-04T02:01:33.615Z,0.080
2024-03-04T02:03:32.781Z,0.081
2024-03-04T02:05:32.842Z,0.080
2024-03-04T02:07:32.889Z,0.080
2024-03-04T02:09:32.785Z,0.079
2024-03-04T02:11:33.040Z,0.078
2024-03-04T02:13:32.864Z,0.079
2024-03-04T02:15:32.798Z,0.081
2024-03-04T02:17:32.841Z,0.084
2024-03-04T02:19:32.904Z,0.086
2024-03-04T02:21:36.268Z,0.089
2024-03-04T02:23:32.863Z,0.091
2024-03-04T02:25:32.883Z,0.090
2024-03-04T02:27:32.848Z,0.088
2024-03-04T02:29:32.809Z,0.087
2024-03-04T02:31:32.875Z,0.089
2024-03-04T02:33:32.847Z,0.087
2024-03-04T02:35:32.798Z,0.087
2024-03-04T02:37:32.856Z,0.088
2024-03-04T02:39:32.807Z,0.087
2024-03-04T02:41:32.943Z,0.086
2024-03-04T02:43:32.913Z,0.085
2024-03-04T02:45:32.956Z,0.085
2024-03-04T02:47:32.929Z,0.087
2024-03-04T02:49:32.977Z,0.086
2024-03-04T02:51:32.847Z,0.083
2024-03-04T02:53:32.838Z,0.083
2024-03-04T02:55:32.988Z,0.082
2024-03-04T02:57:32.853Z,0.082
2024-03-04T02:59:32.826Z,0.080
2024-03-04T03:01:33.322Z,0.080
2024-03-04T03:03:32.841Z,0.077
2024-03-04T03:05:32.801Z,0.078
2024-03-04T03:07:32.942Z,0.080
2024-03-04T03:09:32.825Z,0.079
2024-03-04T03:11:32.879Z,0.081
2024-03-04T03:13:32.923Z,0.080
2024-03-04T03:15:32.872Z,0.080
2024-03-04T03:17:32.878Z,0.080
2024-03-04T03:19:37.908Z,0.077
2024-03-04T03:21:32.842Z,0.075
2024-03-04T03:23:35.652Z,0.072
2024-03-04T03:25:32.851Z,0.071
2024-03-04T03:27:32.893Z,0.072
2024-03-04T03:29:32.895Z,0.073
2024-03-04T03:31:32.915Z,0.071
2024-03-04T03:33:32.973Z,0.071
2024-03-04T03:35:33.149Z,0.073
2024-03-04T03:37:32.967Z,0.073
2024-03-04T03:39:32.924Z,0.074
2024-03-04T03:41:32.838Z,0.077
2024-03-04T03:43:32.966Z,0.076
2024-03-04T03:45:33.309Z,0.075
2024-03-04T03:47:32.948Z,0.076
2024-03-04T03:49:32.913Z,0.076
2024-03-04T03:51:32.879Z,0.074
2024-03-04T03:53:32.865Z,0.070
2024-03-04T03:55:32.922Z,0.070
2024-03-04T03:57:41.738Z,0.070
2024-03-04T03:59:32.878Z,0.071
2024-03-04T04:01:32.936Z,0.070
2024-03-04T04:03:32.868Z,0.070
2024-03-04T04:05:37.778Z,0.071
2024-03-04T04:07:32.940Z,0.070
2024-03-04T04:09:32.896Z,0.069
2024-03-04T04:11:32.912Z,0.067
2024-03-04T04:13:34.416Z,0.069
2024-03-04T04:15:32.855Z,0.068
2024-03-04T04:17:32.945Z,0.067
2024-03-04T04:19:33.267Z,0.068
2024-03-04T04:21:33.477Z,0.070
2024-03-04T04:24:32.886Z,0.073
2024-03-04T04:25:35.640Z,0.074
2024-03-04T04:28:33.747Z,0.071
2024-03-04T04:30:32.869Z,0.074
2024-03-04T04:32:33.571Z,0.074
2024-03-04T04:34:36.874Z,0.072
2024-03-04T04:36:32.998Z,0.069
2024-03-04T04:38:32.863Z,0.067
2024-03-04T04:40:34.685Z,0.066
2024-03-04T04:42:33.185Z,0.067
2024-03-04T04:44:32.932Z,0.067
2024-03-04T04:46:32.906Z,0.065
2024-03-04T04:48:32.886Z,0.064
2024-03-04T04:50:33.062Z,0.066
2024-03-04T04:52:34.696Z,0.071
2024-03-04T04:54:33.289Z,0.072
2024-03-04T04:56:35.797Z,0.074
2024-03-04T05:00:32.957Z,0.073
2024-03-04T05:02:02.848Z,0.072
2024-03-04T05:04:15.067Z,0.073
2024-03-04T05:06:02.911Z,0.074
2024-03-04T05:08:02.749Z,0.074
2024-03-04T05:10:02.897Z,0.075
2024-03-04T05:12:02.812Z,0.074
2024-03-04T05:14:02.700Z,0.075
2024-03-04T05:16:02.897Z,0.075
2024-03-04T05:18:02.762Z,0.076
2024-03-04T05:20:02.841Z,0.076
2024-03-04T05:22:02.996Z,0.074
2024-03-04T05:24:02.766Z,0.076
2024-03-04T05:26:02.854Z,0.077
2024-03-04T05:28:02.709Z,0.076
2024-03-04T05:30:06.419Z,0.074
2024-03-04T05:32:02.720Z,0.073
2024-03-04T05:34:05.515Z,0.074
2024-03-04T05:36:02.924Z,0.075
2024-03-04T05:38:02.707Z,0.076
2024-03-04T05:40:02.844Z,0.077
2024-03-04T05:42:03.888Z,0.076
2024-03-04T05:44:04.070Z,0.076
2024-03-04T05:46:04.791Z,0.078
2024-03-04T05:48:02.791Z,0.078
2024-03-04T05:50:02.887Z,0.076
2024-03-04T05:52:02.701Z,0.073
2024-03-04T05:54:02.659Z,0.071
2024-03-04T05:56:02.880Z,0.071
2024-03-04T05:58:05.482Z,0.074
2024-03-04T06:00:02.744Z,0.074
2024-03-04T06:02:02.835Z,0.075
2024-03-04T06:04:02.713Z,0.076
2024-03-04T06:06:03.403Z,0.074
2024-03-04T06:08:02.651Z,0.074
2024-03-04T06:10:04.112Z,0.074
2024-03-04T06:13:02.636Z,0.073
2024-03-04T06:15:02.696Z,0.073
2024-03-04T06:17:02.801Z,0.074
2024-03-04T06:19:02.779Z,0.073
2024-03-04T06:21:02.647Z,0.071
2024-03-04T06:23:02.799Z,0.072
2024-03-04T06:25:02.728Z,0.070
2024-03-04T06:27:03.023Z,0.070
2024-03-04T06:29:05.510Z,0.072
2024-03-04T06:31:02.647Z,0.071
2024-03-04T06:33:03.293Z,0.072
2024-03-04T06:35:02.739Z,0.072
2024-03-04T06:37:02.817Z,0.073
2024-03-04T06:39:02.714Z,0.072
2024-03-04T06:41:02.632Z,0.070
2024-03-04T06:43:02.737Z,0.070
2024-03-04T06:45:02.877Z,0.070
2024-03-04T06:47:02.737Z,0.071
2024-03-04T06:49:02.776Z,0.072
2024-03-04T06:51:02.729Z,0.073
2024-03-04T06:53:05.188Z,0.073
2024-03-04T06:55:02.888Z,0.073
2024-03-04T06:57:02.807Z,0.072
2024-03-04T06:59:02.929Z,0.069
2024-03-04T07:01:02.927Z,0.068
2024-03-04T07:03:02.732Z,0.067
2024-03-04T07:05:07.150Z,0.069
2024-03-04T07:07:04.772Z,0.069
2024-03-04T07:09:02.977Z,0.068
2024-03-04T07:11:02.765Z,0.067
2024-03-04T07:13:02.826Z,0.066
2024-03-04T07:15:02.835Z,0.065
2024-03-04T07:17:02.762Z,0.065
2024-03-04T07:19:02.734Z,0.064
2024-03-04T07:21:03.714Z,0.066
2024-03-04T07:23:02.712Z,0.065
2024-03-04T07:25:02.792Z,0.065
2024-03-04T07:27:02.813Z,0.063
2024-03-04T07:29:03.401Z,0.063
2024-03-04T07:31:05.857Z,0.063
2024-03-04T07:33:02.762Z,0.063
2024-03-04T07:35:05.228Z,0.061
2024-03-04T07:37:08.057Z,0.060
2024-03-04T07:39:02.756Z,0.061
2024-03-04T07:41:02.699Z,0.061
2024-03-04T07:43:02.848Z,0.064
2024-03-04T07:45:02.765Z,0.063
2024-03-04T07:47:02.690Z,0.063
2024-03-04T07:49:02.766Z,0.062
2024-03-04T07:51:02.711Z,0.062
2024-03-04T07:53:02.747Z,0.060
2024-03-04T07:55:03.061Z,0.058
2024-03-04T07:57:10.276Z,0.058
2024-03-04T07:59:03.593Z,0.060
2024-03-04T08:01:02.972Z,0.063
2024-03-04T08:03:02.776Z,0.061
2024-03-04T08:05:02.816Z,0.062
2024-03-04T08:07:02.788Z,0.061
2024-03-04T08:09:02.697Z,0.064
2024-03-04T08:11:03.287Z,0.067
2024-03-04T08:13:02.810Z,0.066
2024-03-04T08:15:02.906Z,0.065
2024-03-04T08:17:02.745Z,0.065
2024-03-04T08:19:02.808Z,0.066
2024-03-04T08:21:02.799Z,0.066
2024-03-04T08:23:02.754Z,0.064
2024-03-04T08:25:03.019Z,0.062
2024-03-04T08:27:02.756Z,0.061
2024-03-04T08:29:02.813Z,0.062
2024-03-04T08:31:02.767Z,0.063
2024-03-04T08:33:05.661Z,0.064
2024-03-04T08:35:02.719Z,0.067
2024-03-04T08:37:03.139Z,0.068
2024-03-04T08:39:02.712Z,0.067
2024-03-04T08:41:02.777Z,0.068
2024-03-04T08:43:02.899Z,0.066
2024-03-04T08:45:02.805Z,0.065
2024-03-04T08:47:02.767Z,0.067
2024-03-04T08:49:04.956Z,0.066
2024-03-04T08:51:02.780Z,0.069
2024-03-04T08:53:02.832Z,0.070
2024-03-04T08:55:02.784Z,0.070
2024-03-04T08:57:02.846Z,0.069
2024-03-04T08:59:03.217Z,0.066
2024-03-04T09:01:03.209Z,0.065
2024-03-04T09:03:02.831Z,0.067
2024-03-04T09:05:05.194Z,0.065
2024-03-04T09:07:02.793Z,0.066
2024-03-04T09:09:03.201Z,0.067
2024-03-04T09:11:02.989Z,0.064
2024-03-04T09:13:02.881Z,0.065
2024-03-04T09:15:02.841Z,0.067
2024-03-04T09:17:02.956Z,0.066
2024-03-04T09:19:02.897Z,0.066
2024-03-04T09:21:02.821Z,0.062
2024-03-04T09:23:02.804Z,0.066
2024-03-04T09:25:02.965Z,0.071
2024-03-04T09:27:02.833Z,0.071
2024-03-04T09:29:02.925Z,0.068
2024-03-04T09:31:02.864Z,0.069
2024-03-04T09:33:02.911Z,0.067
2024-03-04T09:35:05.760Z,0.067
2024-03-04T09:37:03.044Z,0.063
2024-03-04T09:39:05.715Z,0.065
2024-03-04T09:41:02.752Z,0.065
2024-03-04T09:43:02.758Z,0.066
2024-03-04T09:45:02.773Z,0.068
2024-03-04T09:48:17.114Z,0.067
2024-03-04T09:50:02.773Z,0.065
2024-03-04T09:52:11.921Z,0.063
2024-03-04T09:53:08.662Z,0.063
2024-03-04T09:56:02.817Z,0.066
2024-03-04T09:58:02.739Z,0.070
2024-03-04T10:00:02.822Z,0.066
2024-03-04T10:02:03.190Z,0.064
2024-03-04T10:04:02.853Z,0.066
2024-03-04T10:06:02.819Z,0.067
2024-03-04T10:08:02.803Z,0.067
2024-03-04T10:10:03.054Z,0.067
2024-03-04T10:12:02.815Z,0.066
2024-03-04T10:14:02.801Z,0.067
2024-03-04T10:16:02.934Z,0.068
2024-03-04T10:18:02.892Z,0.068
2024-03-04T10:20:02.785Z,0.071
2024-03-04T10:22:02.805Z,0.071
2024-03-04T10:24:02.859Z,0.069
2024-03-04T10:26:02.890Z,0.068
2024-03-04T10:28:02.903Z,0.069
2024-03-04T10:30:02.993Z,0.069
2024-03-04T10:32:02.820Z,0.069
2024-03-04T10:34:02.901Z,0.070
2024-03-04T10:36:07.735Z,0.069
2024-03-04T10:38:02.865Z,0.074
2024-03-04T10:40:02.956Z,0.072
2024-03-04T10:42:02.856Z,0.071
2024-03-04T10:44:02.813Z,0.072
2024-03-04T10:46:02.902Z,0.069
2024-03-04T10:48:02.907Z,0.068
2024-03-04T10:50:02.799Z,0.068
2024-03-04T10:52:12.881Z,0.069
2024-03-04T10:54:02.857Z,0.071
2024-03-04T10:58:17.446Z,0.068
2024-03-04T11:00:17.444Z,0.070
2024-03-04T11:02:17.415Z,0.072
2024-03-04T11:04:17.457Z,0.073
2024-03-04T11:06:20.647Z,0.071
2024-03-04T11:08:17.868Z,0.070
2024-03-04T11:10:17.490Z,0.069
2024-03-04T11:12:17.406Z,0.070
2024-03-04T11:14:17.432Z,0.071
2024-03-04T11:16:17.480Z,0.069
2024-03-04T11:18:17.441Z,0.070
2024-03-04T11:20:18.082Z,0.069
2024-03-04T11:22:17.517Z,0.068
2024-03-04T11:24:17.452Z,0.069
2024-03-04T11:26:17.392Z,0.071
2024-03-04T11:28:17.533Z,0.070
2024-03-04T11:30:17.863Z,0.071
2024-03-04T11:32:17.461Z,0.070
2024-03-04T11:34:17.916Z,0.070
2024-03-04T11:36:17.469Z,0.072
2024-03-04T11:38:17.433Z,0.070
2024-03-04T11:40:17.594Z,0.071
2024-03-04T11:42:17.430Z,0.071
2024-03-04T11:44:17.455Z,0.073
2024-03-04T11:46:17.481Z,0.074
2024-03-04T11:48:17.411Z,0.073
2024-03-04T11:50:17.432Z,0.074
2024-03-04T11:52:17.465Z,0.075
2024-03-04T11:54:17.951Z,0.074
2024-03-04T11:56:17.621Z,0.075
2024-03-04T11:58:17.515Z,0.076
2024-03-04T12:00:17.437Z,0.076
2024-03-04T12:02:17.572Z,0.075
2024-03-04T12:04:17.433Z,0.075
2024-03-04T12:06:22.430Z,0.076
2024-03-04T12:08:32.950Z,0.076
2024-03-04T12:10:18.256Z,0.077
2024-03-04T12:12:17.552Z,0.075
2024-03-04T12:14:17.492Z,0.073
2024-03-04T12:16:17.519Z,0.074
2024-03-04T12:18:17.637Z,0.076
2024-03-04T12:20:17.558Z,0.074
2024-03-04T12:22:17.760Z,0.075
2024-03-04T12:24:17.511Z,0.076
2024-03-04T12:26:17.563Z,0.074
2024-03-04T12:28:17.608Z,0.076
2024-03-04T12:30:17.473Z,0.075
2024-03-04T12:32:17.490Z,0.075
2024-03-04T12:34:17.566Z,0.076
2024-03-04T12:36:17.477Z,0.076
2024-03-04T12:38:17.463Z,0.075
2024-03-04T12:40:17.647Z,0.074
2024-03-04T12:42:17.584Z,0.073
2024-03-04T12:44:17.475Z,0.070
2024-03-04T12:46:17.549Z,0.071
2024-03-04T12:48:17.496Z,0.074
2024-03-04T12:50:20.352Z,0.075
2024-03-04T12:52:17.648Z,0.074
2024-03-04T12:54:17.523Z,0.071
2024-03-04T12:56:17.593Z,0.068
2024-03-04T12:58:17.567Z,0.069
2024-03-04T13:00:17.603Z,0.070
2024-03-04T13:02:17.528Z,0.070
2024-03-04T13:04:17.525Z,0.070
2024-03-04T13:06:17.627Z,0.071
2024-03-04T13:08:17.663Z,0.073
2024-03-04T13:10:20.910Z,0.073
2024-03-04T13:12:17.476Z,0.074
2024-03-04T13:14:17.512Z,0.074
2024-03-04T13:16:17.579Z,0.076
2024-03-04T13:18:17.498Z,0.075
2024-03-04T13:20:17.656Z,0.077
2024-03-04T13:22:17.534Z,0.076
2024-03-04T13:24:17.493Z,0.074
2024-03-04T13:26:18.442Z,0.075
2024-03-04T13:28:17.670Z,0.075
2024-03-04T13:30:17.491Z,0.075
2024-03-04T13:32:17.561Z,0.078
2024-03-04T13:34:17.813Z,0.077
2024-03-04T13:36:17.538Z,0.078
2024-03-04T13:38:17.547Z,0.078
2024-03-04T13:40:25.208Z,0.077
2024-03-04T13:42:17.518Z,0.076
2024-03-04T13:44:17.498Z,0.079
2024-03-04T13:46:17.617Z,0.077
2024-03-04T13:48:17.641Z,0.076
2024-03-04T13:50:17.725Z,0.078
2024-03-04T13:52:17.487Z,0.078
2024-03-04T13:54:17.716Z,0.081
2024-03-04T13:56:17.722Z,0.083
2024-03-04T13:58:17.651Z,0.084
2024-03-04T14:00:17.496Z,0.083
2024-03-04T14:02:17.555Z,0.084
2024-03-04T14:04:17.626Z,0.082
2024-03-04T14:06:17.591Z,0.080
2024-03-04T14:08:17.737Z,0.080
2024-03-04T14:10:17.850Z,0.082
2024-03-04T14:12:17.535Z,0.081
2024-03-04T14:14:17.503Z,0.081
2024-03-04T14:16:17.585Z,0.079
2024-03-04T14:19:17.599Z,0.078
2024-03-04T14:21:17.504Z,0.077
2024-03-04T14:23:17.878Z,0.078
2024-03-04T14:25:17.571Z,0.077
2024-03-04T14:27:17.544Z,0.075
2024-03-04T14:29:17.603Z,0.078
2024-03-04T14:31:17.677Z,0.078
2024-03-04T14:33:17.650Z,0.076
2024-03-04T14:35:17.641Z,0.075
2024-03-04T14:37:17.659Z,0.075
2024-03-04T14:39:17.691Z,0.074
2024-03-04T14:41:17.534Z,0.075
2024-03-04T14:43:17.623Z,0.073
2024-03-04T14:45:17.752Z,0.071
2024-03-04T14:47:17.664Z,0.074
2024-03-04T14:49:17.736Z,0.071
2024-03-04T14:51:17.548Z,0.069
2024-03-04T14:53:17.715Z,0.070
2024-03-04T14:55:17.636Z,0.069
2024-03-04T14:57:17.654Z,0.068
2024-03-04T14:59:17.540Z,0.067
2024-03-04T15:01:17.692Z,0.066
2024-03-04T15:03:17.530Z,0.064
2024-03-04T15:05:18.064Z,0.065
2024-03-04T15:07:17.716Z,0.063
2024-03-04T15:09:17.651Z,0.062
2024-03-04T15:11:17.739Z,0.063
2024-03-04T15:13:20.709Z,0.064
2024-03-04T15:15:17.888Z,0.066
2024-03-04T15:17:17.611Z,0.064
2024-03-04T15:19:17.755Z,0.065
2024-03-04T15:21:17.584Z,0.065
2024-03-04T15:23:18.018Z,0.064
2024-03-04T15:25:17.586Z,0.067
2024-03-04T15:27:17.699Z,0.068
2024-03-04T15:29:20.366Z,0.067
2024-03-04T15:31:17.616Z,0.066
2024-03-04T15:33:17.642Z,0.068
2024-03-04T15:35:17.568Z,0.067
2024-03-04T15:37:17.895Z,0.066
2024-03-04T15:39:17.639Z,0.065
2024-03-04T15:41:17.552Z,0.065
2024-03-04T15:43:17.619Z,0.066
2024-03-04T15:45:17.626Z,0.067
2024-03-04T15:47:17.751Z,0.069
2024-03-04T15:49:17.750Z,0.069
2024-03-04T15:51:17.554Z,0.071
2024-03-04T15:53:17.662Z,0.070
2024-03-04T15:55:17.601Z,0.068
2024-03-04T15:57:17.694Z,0.066
2024-03-04T15:59:17.714Z,0.065
2024-03-04T16:01:18.268Z,0.067
2024-03-04T16:03:17.804Z,0.070
2024-03-04T16:05:17.804Z,0.069
2024-03-04T16:07:17.713Z,0.071
2024-03-04T16:09:17.693Z,0.073
2024-03-04T16:11:17.780Z,0.069
2024-03-04T16:13:17.811Z,0.068
2024-03-04T16:15:20.618Z,0.067
2024-03-04T16:17:17.656Z,0.068
2024-03-04T16:19:17.624Z,0.068
2024-03-04T16:21:18.002Z,0.068
2024-03-04T16:23:17.644Z,0.070
2024-03-04T16:25:17.914Z,0.070
2024-03-04T16:27:17.960Z,0.068
2024-03-04T16:29:17.871Z,0.068
2024-03-04T16:31:17.843Z,0.069
2024-03-04T16:33:17.876Z,0.069
2024-03-04T16:35:19.895Z,0.069
2024-03-04T16:37:17.646Z,0.070
2024-03-04T16:39:21.109Z,0.071
2024-03-04T16:41:17.775Z,0.071
2024-03-04T16:43:20.643Z,0.070
2024-03-04T16:45:17.732Z,0.072
2024-03-04T16:47:20.474Z,0.069
2024-03-04T16:49:17.798Z,0.072
2024-03-04T16:51:17.981Z,0.071
2024-03-04T16:53:17.676Z,0.073
2024-03-04T16:55:17.703Z,0.073
2024-03-04T16:57:23.811Z,0.074
2024-03-04T16:59:17.801Z,0.077
2024-03-04T17:01:17.681Z,0.075
2024-03-04T17:03:20.538Z,0.073
2024-03-04T17:05:21.279Z,0.074
2024-03-04T17:07:20.705Z,0.074
2024-03-04T17:09:20.306Z,0.075
2024-03-04T17:11:20.265Z,0.076
2024-03-04T17:13:17.714Z,0.075
2024-03-04T17:15:17.791Z,0.074
2024-03-04T17:17:20.639Z,0.077
2024-03-04T17:19:17.684Z,0.079
2024-03-04T17:21:17.693Z,0.080
2024-03-04T17:23:17.707Z,0.079
2024-03-04T17:25:17.831Z,0.076
2024-03-04T17:27:17.745Z,0.076
2024-03-04T17:29:23.841Z,0.076
2024-03-04T17:31:20.284Z,0.073
2024-03-04T17:33:17.772Z,0.073
2024-03-04T17:35:18.759Z,0.072
2024-03-04T17:37:20.563Z,0.074
2024-03-04T17:43:27.477Z,0.079
2024-03-04T17:45:30.238Z,0.078
2024-03-04T17:47:31.047Z,0.078
2024-03-04T17:49:27.585Z,0.076
2024-03-04T17:51:27.450Z,0.074
2024-03-04T17:53:39.610Z,0.076
2024-03-04T17:55:32.732Z,0.074
2024-03-04T17:57:27.617Z,0.077
2024-03-04T17:59:27.357Z,0.076
2024-03-04T18:01:30.072Z,0.075
2024-03-04T18:03:27.598Z,0.077
2024-03-04T18:05:27.512Z,0.076
2024-03-04T18:07:27.494Z,0.074
2024-03-04T18:09:27.492Z,0.071
2024-03-04T18:11:27.571Z,0.071
2024-03-04T18:13:33.485Z,0.071
2024-03-04T18:15:27.421Z,0.072
2024-03-04T18:17:33.412Z,0.071
2024-03-04T18:19:27.565Z,0.068
2024-03-04T18:21:27.536Z,0.066
2024-03-04T18:23:27.478Z,0.065
2024-03-04T18:25:27.468Z,0.067
2024-03-04T18:27:27.568Z,0.068
2024-03-04T18:29:27.464Z,0.069
2024-03-04T18:31:27.665Z,0.070
2024-03-04T18:33:30.175Z,0.070
2024-03-04T18:35:30.556Z,0.070
2024-03-04T18:37:30.118Z,0.068
2024-03-04T18:39:34.505Z,0.068
2024-03-04T18:41:36.228Z,0.065
2024-03-04T18:43:30.467Z,0.064
2024-03-04T18:46:27.463Z,0.063
2024-03-04T18:48:30.517Z,0.063
2024-03-04T18:50:28.235Z,0.064
2024-03-04T18:52:27.461Z,0.062
2024-03-04T18:54:27.416Z,0.062
2024-03-04T18:56:30.744Z,0.064
2024-03-04T18:58:27.498Z,0.063
2024-03-04T19:00:27.398Z,0.062
2024-03-04T19:02:27.654Z,0.063
2024-03-04T19:04:27.527Z,0.062
2024-03-04T19:06:27.444Z,0.064
2024-03-04T19:08:27.430Z,0.063
2024-03-04T19:10:27.593Z,0.064
2024-03-04T19:12:27.468Z,0.062
2024-03-04T19:14:27.736Z,0.063
2024-03-04T19:16:27.535Z,0.060
2024-03-04T19:18:27.457Z,0.060
2024-03-04T19:20:28.034Z,0.059
2024-03-04T19:22:27.594Z,0.060
2024-03-04T19:24:27.398Z,0.059
2024-03-04T19:26:27.635Z,0.058
2024-03-04T19:28:27.584Z,0.059
2024-03-04T19:30:28.378Z,0.056
2024-03-04T19:32:27.575Z,0.057
2024-03-04T19:34:27.432Z,0.057
2024-03-04T19:36:27.528Z,0.059
2024-03-04T19:38:27.496Z,0.057
2024-03-04T19:40:30.502Z,0.057
2024-03-04T19:42:27.698Z,0.058
2024-03-04T19:44:27.401Z,0.058
2024-03-04T19:46:27.527Z,0.059
2024-03-04T19:48:27.532Z,0.060
2024-03-04T19:50:30.646Z,0.061
2024-03-04T19:52:27.533Z,0.060
2024-03-04T19:54:27.584Z,0.062
2024-03-04T19:56:27.550Z,0.058
2024-03-04T19:58:27.495Z,0.060
2024-03-04T20:00:27.473Z,0.060
2024-03-04T20:02:27.541Z,0.061
2024-03-04T20:04:27.631Z,0.061
2024-03-04T20:06:27.492Z,0.060
2024-03-04T20:08:27.512Z,0.059
2024-03-04T20:10:31.373Z,0.064
2024-03-04T20:12:28.208Z,0.067
2024-03-04T20:14:27.453Z,0.067
2024-03-04T20:16:27.762Z,0.067
2024-03-04T20:18:27.970Z,0.067
2024-03-04T20:20:27.639Z,0.067
2024-03-04T20:22:27.590Z,0.067
2024-03-04T20:24:27.558Z,0.067
2024-03-04T20:26:27.442Z,0.068
2024-03-04T20:28:28.371Z,0.067
2024-03-04T20:30:27.681Z,0.067
2024-03-04T20:32:27.575Z,0.066
2024-03-04T20:34:27.661Z,0.063
2024-03-04T20:36:27.558Z,0.062
2024-03-04T20:38:27.562Z,0.064
2024-03-04T20:40:33.768Z,0.064
2024-03-04T20:42:27.529Z,0.063
2024-03-04T20:44:27.498Z,0.064
2024-03-04T20:46:27.781Z,0.064
2024-03-04T20:48:27.456Z,0.062
2024-03-04T20:50:27.481Z,0.061
2024-03-04T20:52:30.581Z,0.064
2024-03-04T20:54:28.068Z,0.061
2024-03-04T20:56:27.530Z,0.064
2024-03-04T20:58:27.500Z,0.062
2024-03-04T21:00:27.492Z,0.064
2024-03-04T21:02:27.504Z,0.065
2024-03-04T21:04:27.651Z,0.064
2024-03-04T21:06:27.495Z,0.064
2024-03-04T21:08:27.587Z,0.066
2024-03-04T21:10:27.825Z,0.063
2024-03-04T21:12:27.548Z,0.063
2024-03-04T21:14:27.466Z,0.062
2024-03-04T21:16:27.773Z,0.064
2024-03-04T21:18:27.521Z,0.067
2024-03-04T21:20:28.051Z,0.069
2024-03-04T21:22:32.485Z,0.069
2024-03-04T21:24:27.532Z,0.070
2024-03-04T21:26:27.521Z,0.071
2024-03-04T21:28:27.671Z,0.070
2024-03-04T21:30:27.517Z,0.070
2024-03-04T21:32:33.490Z,0.072
2024-03-04T21:34:27.680Z,0.075
2024-03-04T21:36:27.526Z,0.072
2024-03-04T21:38:27.598Z,0.072
2024-03-04T21:40:27.607Z,0.071
2024-03-04T21:42:27.519Z,0.071
2024-03-04T21:44:27.721Z,0.070
2024-03-04T21:46:27.807Z,0.069
2024-03-04T21:48:27.753Z,0.073
2024-03-04T21:50:27.574Z,0.075
2024-03-04T21:52:27.652Z,0.074
2024-03-04T21:54:30.579Z,0.076
2024-03-04T21:56:27.638Z,0.074
2024-03-04T21:58:27.644Z,0.074
2024-03-04T22:00:27.563Z,0.075
2024-03-04T22:02:27.690Z,0.074
2024-03-04T22:04:27.672Z,0.074
2024-03-04T22:06:27.696Z,0.072
2024-03-04T22:08:27.596Z,0.071
2024-03-04T22:10:27.560Z,0.070
2024-03-04T22:12:27.578Z,0.068
2024-03-04T22:14:27.523Z,0.070
2024-03-04T22:16:28.068Z,0.068
2024-03-04T22:18:27.736Z,0.068
2024-03-04T22:20:28.679Z,0.069
2024-03-04T22:22:27.685Z,0.068
2024-03-04T22:24:27.553Z,0.068
2024-03-04T22:27:27.673Z,0.066
2024-03-04T22:29:27.698Z,0.068
2024-03-04T22:31:27.791Z,0.068
2024-03-04T22:33:27.602Z,0.066
2024-03-04T22:35:27.600Z,0.066
2024-03-04T22:37:27.585Z,0.067
2024-03-04T22:39:27.588Z,0.068
2024-03-04T22:41:27.596Z,0.069
2024-03-04T22:43:27.622Z,0.068
2024-03-04T22:45:27.564Z,0.069
2024-03-04T22:47:27.706Z,0.066
2024-03-04T22:49:27.675Z,0.063
2024-03-04T22:51:27.605Z,0.063
2024-03-04T22:53:27.583Z,0.064
2024-03-04T22:55:27.696Z,0.065
2024-03-04T22:57:27.671Z,0.065
2024-03-04T22:59:27.631Z,0.063
2024-03-04T23:01:28.025Z,0.063
2024-03-04T23:03:27.655Z,0.064
2024-03-04T23:05:28.136Z,0.063
2024-03-04T23:07:29.092Z,0.063
2024-03-04T23:09:27.543Z,0.065
2024-03-04T23:11:27.740Z,0.066
2024-03-04T23:13:27.670Z,0.065
2024-03-04T23:15:27.740Z,0.066
2024-03-04T23:17:27.770Z,0.064
2024-03-04T23:19:27.648Z,0.061
2024-03-04T23:21:27.832Z,0.062
2024-03-04T23:23:27.551Z,0.062
2024-03-04T23:25:27.949Z,0.065
2024-03-04T23:27:30.693Z,0.064
2024-03-04T23:29:27.701Z,0.065
2024-03-04T23:31:27.659Z,0.064
2024-03-04T23:33:27.666Z,0.065
2024-03-04T23:35:27.547Z,0.066
2024-03-04T23:37:27.717Z,0.068
2024-03-04T23:39:27.794Z,0.069
2024-03-04T23:41:28.342Z,0.069
2024-03-04T23:43:27.607Z,0.068
2024-03-04T23:45:27.971Z,0.069
2024-03-04T23:47:27.658Z,0.069
2024-03-04T23:49:27.662Z,0.070
2024-03-04T23:51:28.102Z,0.070
2024-03-04T23:53:27.636Z,0.071
2024-03-04T23:55:27.748Z,0.071
2024-03-04T23:57:27.714Z,0.071
2024-03-04T23:59:27.600Z,0.070
